createdAt,value
2023-05-10T00:01:47.149Z,13.0
2023-05-10T00:07:19.378Z,13.0
2023-05-10T00:21:47.378Z,13.5
2023-05-10T00:31:47.449Z,13.0
2023-05-10T00:36:47.482Z,12.5
2023-05-10T00:41:47.552Z,12.0
2023-05-10T00:46:47.607Z,12.5
2023-05-10T01:01:47.737Z,12.0
2023-05-10T01:06:47.753Z,12.5
2023-05-10T01:11:47.836Z,12.0
2023-05-10T01:21:47.918Z,12.5
2023-05-10T01:36:48.060Z,12.0
2023-05-10T01:46:48.211Z,12.5
2023-05-10T01:56:48.237Z,12.0
2023-05-10T02:01:48.293Z,12.5
2023-05-10T02:16:48.526Z,12.0
2023-05-10T02:26:48.554Z,11.5
2023-05-10T02:36:48.653Z,12.0
2023-05-10T02:41:48.721Z,12.5
2023-05-10T02:46:48.743Z,12.0
2023-05-10T02:56:48.836Z,12.5
2023-05-10T03:05:29.825Z,12.5
2023-05-10T03:21:49.098Z,12.0
2023-05-10T03:26:49.138Z,12.5
2023-05-10T04:01:49.538Z,12.0
2023-05-10T04:05:31.448Z,12.0
2023-05-10T04:16:49.812Z,12.5
2023-05-10T04:26:49.732Z,12.0
2023-05-10T04:31:49.841Z,12.5
2023-05-10T05:05:37.053Z,12.5
2023-05-10T05:16:50.228Z,12.0
2023-05-10T05:21:50.245Z,12.5
2023-05-10T05:26:50.308Z,12.0
2023-05-10T05:41:50.926Z,12.5
2023-05-10T05:51:50.686Z,12.0
2023-05-10T06:01:50.744Z,12.5
2023-05-10T06:05:42.575Z,12.5
2023-05-10T06:16:51.029Z,12.0
2023-05-10T06:26:50.916Z,12.5
2023-05-10T06:36:51.767Z,12.0
2023-05-10T06:41:51.096Z,12.5
2023-05-10T07:01:51.281Z,13.0
2023-05-10T07:05:48.068Z,13.0
2023-05-10T07:06:51.262Z,13.5
2023-05-10T07:41:51.694Z,13.0
2023-05-10T07:56:51.767Z,13.5
2023-05-10T08:05:53.567Z,13.5
2023-05-10T08:11:51.906Z,13.5
2023-05-10T08:16:53.810Z,13.0
2023-05-10T08:21:52.075Z,13.5
2023-05-10T08:26:52.121Z,13.0
2023-05-10T08:36:52.143Z,13.5
2023-05-10T08:41:52.363Z,14.5
2023-05-10T08:56:52.338Z,14.0
2023-05-10T09:05:59.075Z,14.0
2023-05-10T09:06:52.438Z,14.5
2023-05-10T09:16:52.546Z,14.0
2023-05-10T09:21:53.051Z,14.5
2023-05-10T09:36:52.739Z,14.0
2023-05-10T09:41:52.764Z,14.5
2023-05-10T09:56:52.928Z,14.0
2023-05-10T10:06:22.827Z,14.0
2023-05-10T10:11:53.060Z,15.5
2023-05-10T10:17:06.346Z,15.0
2023-05-10T10:21:53.252Z,15.5
2023-05-10T10:31:53.492Z,15.0
2023-05-10T10:46:53.457Z,15.5
2023-05-10T10:51:58.498Z,15.0
2023-05-10T10:56:53.548Z,16.0
2023-05-10T11:01:53.660Z,16.5
2023-05-10T11:06:10.274Z,16.5
2023-05-10T11:11:53.671Z,16.5
2023-05-10T11:16:53.871Z,16.0
2023-05-10T11:26:53.877Z,17.0
2023-05-10T11:31:53.986Z,17.5
2023-05-10T11:36:54.555Z,17.0
2023-05-10T11:51:54.079Z,17.5
2023-05-10T12:01:54.238Z,17.0
2023-05-10T12:06:15.896Z,17.0
2023-05-10T12:21:54.438Z,18.5
2023-05-10T12:26:54.480Z,17.5
2023-05-10T12:31:54.582Z,17.0
2023-05-10T12:41:54.538Z,18.5
2023-05-10T12:51:54.616Z,18.0
2023-05-10T13:01:54.808Z,18.5
2023-05-10T13:06:21.181Z,18.5
2023-05-10T13:11:54.977Z,18.0
2023-05-10T13:16:55.060Z,18.5
2023-05-10T13:21:54.980Z,18.0
2023-05-10T13:31:55.212Z,18.5
2023-05-10T13:36:55.082Z,18.0
2023-05-10T14:06:31.545Z,18.0
2023-05-10T14:16:56.724Z,17.0
2023-05-10T14:21:55.524Z,17.5
2023-05-10T14:26:55.593Z,17.0
2023-05-10T14:31:55.748Z,17.5
2023-05-10T14:36:55.657Z,17.0
2023-05-10T14:46:55.758Z,17.5
2023-05-10T14:51:55.850Z,18.0
2023-05-10T15:06:32.665Z,18.0
2023-05-10T15:21:56.108Z,17.5
2023-05-10T15:46:56.402Z,16.0
2023-05-10T15:51:56.402Z,16.5
2023-05-10T16:06:37.617Z,16.5
2023-05-10T16:11:56.592Z,16.0
2023-05-10T16:21:56.713Z,15.0
2023-05-10T16:26:56.755Z,15.5
2023-05-10T16:31:56.800Z,15.0
2023-05-10T16:36:56.810Z,15.5
2023-05-10T16:41:56.926Z,15.0
2023-05-10T16:46:56.940Z,15.5
2023-05-10T16:51:57.013Z,15.0
2023-05-10T17:01:57.376Z,15.5
2023-05-10T17:06:42.819Z,15.5
2023-05-10T17:21:57.276Z,15.5
2023-05-10T17:31:57.460Z,15.0
2023-05-10T17:36:57.403Z,15.5
2023-05-10T17:46:57.584Z,15.0
2023-05-10T17:51:57.570Z,15.5
2023-05-10T18:01:57.708Z,15.0
2023-05-10T18:06:48.329Z,15.0
2023-05-10T18:31:57.971Z,15.0
2023-05-10T18:41:58.071Z,15.5
2023-05-10T18:46:58.096Z,15.0
2023-05-10T18:56:58.219Z,14.5
2023-05-10T19:06:53.890Z,14.5
2023-05-10T19:11:58.331Z,14.0
2023-05-10T19:21:58.513Z,14.5
2023-05-10T19:31:58.631Z,14.0
2023-05-10T19:46:58.714Z,14.5
2023-05-10T19:51:58.784Z,14.0
2023-05-10T20:06:59.297Z,14.0
2023-05-10T20:11:59.222Z,14.0
2023-05-10T20:21:59.032Z,14.5
2023-05-10T20:26:59.064Z,14.0
2023-05-10T20:31:59.152Z,14.5
2023-05-10T20:36:59.161Z,14.0
2023-05-10T21:07:04.864Z,14.0
2023-05-10T21:16:59.603Z,14.5
2023-05-10T21:26:59.689Z,14.0
2023-05-10T21:36:59.761Z,14.5
2023-05-10T21:41:59.798Z,14.0
2023-05-10T21:51:59.906Z,14.5
2023-05-10T22:27:00.246Z,14.0
2023-05-10T22:37:00.339Z,14.5
2023-05-10T22:42:00.412Z,14.0
2023-05-10T23:02:00.589Z,14.5
2023-05-10T23:07:00.646Z,14.0
2023-05-10T23:17:00.717Z,14.5
2023-05-10T23:37:00.919Z,14.0
2023-05-10T23:52:01.074Z,14.5
2023-05-10T23:57:01.121Z,14.0
